createdAt,value
2017-12-11T00:00:15.025Z,13.30
2017-12-11T00:00:49.472Z,13.90
2017-12-11T00:01:23.163Z,14.35
2017-12-11T00:01:56.496Z,13.90
2017-12-11T00:02:30.939Z,13.02
2017-12-11T00:03:04.613Z,13.32
2017-12-11T00:03:39.074Z,14.13
2017-12-11T00:04:12.740Z,14.30
2017-12-11T00:04:46.422Z,13.40
2017-12-11T00:05:19.760Z,13.55
2017-12-11T00:05:53.430Z,14.48
2017-12-11T00:06:26.788Z,14.18
2017-12-11T00:07:00.438Z,13.90
2017-12-11T00:07:33.782Z,13.60
2017-12-11T00:08:07.440Z,15.55
2017-12-11T00:08:41.102Z,15.07
2017-12-11T00:09:14.438Z,13.73
2017-12-11T00:09:48.098Z,13.15
2017-12-11T00:10:21.754Z,14.70
2017-12-11T00:10:56.187Z,13.60
2017-12-11T00:11:29.211Z,13.77
2017-12-11T00:12:02.878Z,13.65
2017-12-11T00:12:36.543Z,15.05
2017-12-11T00:13:10.191Z,14.43
2017-12-11T00:13:44.702Z,14.20
2017-12-11T00:14:18.802Z,14.23
2017-12-11T00:14:52.457Z,14.38
2017-12-11T00:15:26.123Z,14.18
2017-12-11T00:16:11.095Z,13.40
2017-12-11T00:16:44.825Z,14.40
2017-12-11T00:17:19.255Z,13.45
2017-12-11T00:17:52.250Z,14.60
2017-12-11T00:18:25.928Z,13.95
2017-12-11T00:18:59.278Z,15.35
2017-12-11T00:19:33.706Z,14.07
2017-12-11T00:20:07.376Z,13.27
2017-12-11T00:20:41.836Z,12.68
2017-12-11T00:21:15.498Z,13.90
2017-12-11T00:21:49.203Z,13.23
2017-12-11T00:22:34.220Z,13.93
2017-12-11T00:23:07.761Z,14.70
2017-12-11T00:23:41.099Z,15.02
2017-12-11T00:24:15.518Z,15.40
2017-12-11T00:24:49.183Z,13.05
2017-12-11T00:25:23.285Z,14.75
2017-12-11T00:25:57.707Z,14.85
2017-12-11T00:26:32.132Z,14.50
2017-12-11T00:27:05.827Z,13.32
2017-12-11T00:27:39.490Z,13.50
2017-12-11T00:28:13.164Z,14.02
2017-12-11T00:28:47.605Z,15.15
2017-12-11T00:29:21.278Z,13.82
2017-12-11T00:29:54.948Z,13.88
2017-12-11T00:30:29.382Z,15.15
2017-12-11T00:31:03.054Z,15.55
2017-12-11T00:31:37.497Z,14.05
2017-12-11T00:32:11.192Z,14.60
2017-12-11T00:32:44.844Z,14.30
2017-12-11T00:33:19.272Z,14.40
2017-12-11T00:33:52.997Z,14.20
2017-12-11T00:34:26.654Z,15.55
2017-12-11T00:35:00.306Z,15.48
2017-12-11T00:35:34.730Z,13.10
2017-12-11T00:36:08.845Z,15.60
2017-12-11T00:36:42.518Z,12.98
2017-12-11T00:37:16.666Z,15.00
2017-12-11T00:37:50.339Z,14.90
2017-12-11T00:38:23.673Z,14.77
2017-12-11T00:38:57.331Z,15.32
2017-12-11T00:39:31.023Z,16.05
2017-12-11T00:40:04.346Z,15.43
2017-12-11T00:40:38.110Z,14.70
2017-12-11T00:41:11.779Z,14.30
2017-12-11T00:41:45.447Z,15.30
2017-12-11T00:42:18.494Z,14.23
2017-12-11T00:42:52.256Z,14.68
2017-12-11T00:43:26.039Z,14.30
2017-12-11T00:43:59.038Z,14.60
2017-12-11T00:44:32.803Z,15.15
2017-12-11T00:45:05.815Z,14.82
2017-12-11T00:45:39.583Z,15.65
2017-12-11T00:46:12.580Z,15.27
2017-12-11T00:46:46.342Z,15.75
2017-12-11T00:47:19.438Z,15.80
2017-12-11T00:47:52.432Z,15.43
2017-12-11T00:48:25.447Z,15.25
2017-12-11T00:48:58.458Z,15.90
2017-12-11T00:49:32.227Z,16.52
2017-12-11T00:50:05.898Z,14.60
2017-12-11T00:50:39.566Z,16.12
2017-12-11T00:51:12.575Z,15.70
2017-12-11T00:51:45.914Z,15.43
2017-12-11T00:52:19.612Z,15.65
2017-12-11T00:52:53.271Z,15.98
2017-12-11T00:53:27.698Z,15.55
2017-12-11T00:54:01.372Z,15.50
2017-12-11T00:54:35.805Z,14.87
2017-12-11T00:55:09.471Z,15.68
2017-12-11T00:55:43.228Z,15.38
2017-12-11T00:56:16.890Z,15.30
2017-12-11T00:56:50.554Z,16.17
2017-12-11T00:57:23.927Z,15.45
2017-12-11T00:57:57.599Z,15.98
2017-12-11T00:58:32.022Z,15.40
2017-12-11T00:59:06.467Z,15.80
2017-12-11T00:59:40.132Z,16.98
2017-12-11T01:00:13.791Z,16.92
2017-12-11T01:00:47.475Z,14.85
2017-12-11T01:01:21.134Z,16.62
2017-12-11T01:01:54.795Z,16.20
2017-12-11T01:02:28.482Z,15.52
2017-12-11T01:03:01.934Z,16.02
2017-12-11T01:03:35.698Z,16.45
2017-12-11T01:04:09.039Z,16.90
2017-12-11T01:04:43.155Z,17.05
2017-12-11T01:05:16.186Z,17.77
2017-12-11T01:05:49.714Z,18.17
2017-12-11T01:06:23.378Z,17.42
2017-12-11T01:06:56.380Z,19.23
2017-12-11T01:07:29.742Z,18.20
2017-12-11T01:08:02.743Z,18.30
2017-12-11T01:08:35.758Z,19.10
2017-12-11T01:09:09.091Z,17.75
2017-12-11T01:09:42.099Z,18.85
2017-12-11T01:10:15.135Z,18.10
2017-12-11T01:10:48.168Z,18.40
2017-12-11T01:11:22.270Z,17.98
2017-12-11T01:11:56.716Z,18.52
2017-12-11T01:12:30.419Z,18.65
2017-12-11T01:13:03.762Z,18.98
2017-12-11T01:13:37.431Z,19.05
2017-12-11T01:14:11.863Z,18.35
2017-12-11T01:14:45.522Z,19.58
2017-12-11T01:15:19.185Z,19.25
2017-12-11T01:15:52.851Z,18.77
2017-12-11T01:16:26.519Z,20.20
2017-12-11T01:17:00.207Z,19.45
2017-12-11T01:17:33.901Z,20.40
2017-12-11T01:18:07.567Z,20.42
2017-12-11T01:18:42.007Z,20.40
2017-12-11T01:19:15.671Z,20.23
2017-12-11T01:19:50.111Z,19.75
2017-12-11T01:20:23.771Z,19.45
2017-12-11T01:20:58.199Z,21.77
2017-12-11T01:21:31.210Z,21.58
2017-12-11T01:22:04.892Z,20.75
2017-12-11T01:22:38.258Z,21.52
2017-12-11T01:23:11.945Z,21.70
2017-12-11T01:23:45.614Z,22.55
2017-12-11T01:24:19.290Z,20.90
2017-12-11T01:24:53.736Z,21.27
2017-12-11T01:25:27.403Z,21.80
2017-12-11T01:26:01.065Z,22.58
2017-12-11T01:26:34.726Z,22.55
2017-12-11T01:27:08.070Z,23.27
2017-12-11T01:27:41.748Z,23.85
2017-12-11T01:28:15.428Z,23.10
2017-12-11T01:28:49.872Z,23.40
2017-12-11T01:29:23.231Z,24.52
2017-12-11T01:29:56.906Z,22.75
2017-12-11T01:30:31.334Z,23.50
2017-12-11T01:31:04.346Z,24.02
2017-12-11T01:31:37.698Z,24.55
2017-12-11T01:32:11.350Z,25.45
2017-12-11T01:32:45.799Z,24.67
2017-12-11T01:33:19.459Z,25.02
2017-12-11T01:33:53.559Z,26.55
2017-12-11T01:34:27.988Z,25.73
2017-12-11T01:35:01.656Z,25.17
2017-12-11T01:35:36.092Z,25.45
2017-12-11T01:36:09.776Z,24.10
2017-12-11T01:36:43.443Z,24.95
2017-12-11T01:37:17.865Z,25.62
2017-12-11T01:37:51.547Z,26.15
2017-12-11T01:38:25.236Z,25.55
2017-12-11T01:38:58.902Z,25.05
2017-12-11T01:39:32.227Z,26.65
2017-12-11T01:40:05.550Z,26.27
2017-12-11T01:40:38.542Z,24.80
2017-12-11T01:41:11.533Z,26.17
2017-12-11T01:41:44.862Z,26.73
2017-12-11T01:42:18.194Z,26.90
2017-12-11T01:42:51.559Z,26.87
2017-12-11T01:43:25.652Z,26.60
2017-12-11T01:43:58.644Z,26.37
2017-12-11T01:44:32.407Z,27.87
2017-12-11T01:45:05.739Z,25.83
2017-12-11T01:45:38.734Z,28.92
2017-12-11T01:46:11.751Z,26.87
2017-12-11T01:46:45.717Z,27.20
2017-12-11T01:47:18.733Z,26.48
2017-12-11T01:47:52.877Z,28.12
2017-12-11T01:48:26.223Z,28.17
2017-12-11T01:48:59.898Z,28.05
2017-12-11T01:49:33.671Z,27.27
2017-12-11T01:50:07.335Z,27.60
2017-12-11T01:50:41.006Z,28.35
2017-12-11T01:51:14.686Z,27.30
2017-12-11T01:51:48.354Z,28.05
2017-12-11T01:52:23.511Z,27.48
2017-12-11T01:52:57.203Z,29.45
2017-12-11T01:53:30.866Z,28.55
2017-12-11T01:54:04.535Z,28.12
2017-12-11T01:54:38.973Z,27.98
2017-12-11T01:55:12.650Z,28.25
2017-12-11T01:55:46.320Z,29.15
2017-12-11T01:56:20.762Z,28.27
2017-12-11T01:56:54.432Z,27.55
2017-12-11T01:57:28.120Z,27.58
2017-12-11T01:58:02.583Z,27.80
2017-12-11T01:58:36.252Z,27.95
2017-12-11T01:59:09.992Z,29.27
2017-12-11T01:59:44.452Z,29.08
2017-12-11T02:00:18.110Z,30.77
2017-12-11T02:00:52.206Z,31.77
2017-12-11T02:01:26.635Z,30.00
2017-12-11T02:02:00.298Z,29.00
2017-12-11T02:02:35.039Z,30.40
2017-12-11T02:03:08.728Z,30.10
2017-12-11T02:03:42.397Z,32.00
2017-12-11T02:04:16.828Z,31.58
2017-12-11T02:04:50.490Z,31.17
2017-12-11T02:05:24.936Z,29.23
2017-12-11T02:05:58.617Z,29.12
2017-12-11T02:06:31.959Z,30.30
2017-12-11T02:07:05.622Z,31.48
2017-12-11T02:07:39.289Z,29.48
2017-12-11T02:08:12.971Z,30.65
2017-12-11T02:08:46.630Z,30.52
2017-12-11T02:09:21.052Z,31.33
2017-12-11T02:09:54.726Z,30.65
2017-12-11T02:10:28.826Z,30.30
2017-12-11T02:11:02.922Z,30.23
2017-12-11T02:11:37.367Z,30.85
2017-12-11T02:12:11.060Z,31.90
2017-12-11T02:12:44.728Z,32.10
2017-12-11T02:13:18.090Z,30.00
2017-12-11T02:13:52.530Z,31.75
2017-12-11T02:14:26.191Z,31.08
2017-12-11T02:15:00.622Z,28.27
2017-12-11T02:15:34.282Z,30.85
2017-12-11T02:16:08.371Z,31.23
2017-12-11T02:16:42.794Z,29.35
2017-12-11T02:17:17.253Z,30.45
2017-12-11T02:17:50.279Z,31.30
2017-12-11T02:18:24.793Z,32.47
2017-12-11T02:18:58.147Z,31.67
2017-12-11T02:19:31.916Z,31.27
2017-12-11T02:20:04.917Z,31.25
2017-12-11T02:20:38.575Z,31.35
2017-12-11T02:21:11.570Z,31.90
2017-12-11T02:21:44.898Z,30.37
2017-12-11T02:22:18.223Z,30.42
2017-12-11T02:22:51.219Z,29.95
2017-12-11T02:23:25.019Z,31.35
2017-12-11T02:23:58.789Z,28.95
2017-12-11T02:24:32.132Z,30.73
2017-12-11T02:25:05.119Z,30.80
2017-12-11T02:25:38.115Z,31.33
2017-12-11T02:26:11.115Z,30.92
2017-12-11T02:26:44.875Z,31.15
2017-12-11T02:27:17.880Z,29.40
2017-12-11T02:27:51.645Z,30.73
2017-12-11T02:28:24.650Z,31.95
2017-12-11T02:28:58.425Z,31.83
2017-12-11T02:29:31.430Z,32.00
2017-12-11T02:30:04.427Z,31.37
2017-12-11T02:30:37.598Z,32.28
2017-12-11T02:31:10.598Z,31.35
2017-12-11T02:31:43.604Z,31.50
2017-12-11T02:32:17.371Z,30.98
2017-12-11T02:32:50.374Z,31.30
2017-12-11T02:33:24.135Z,30.25
2017-12-11T02:33:57.163Z,30.50
2017-12-11T02:34:30.208Z,29.87
2017-12-11T02:35:03.974Z,31.10
2017-12-11T02:35:36.978Z,29.98
2017-12-11T02:36:10.761Z,30.67
2017-12-11T02:36:44.535Z,30.20
2017-12-11T02:37:17.542Z,30.75
2017-12-11T02:37:51.648Z,31.83
2017-12-11T02:38:25.345Z,28.75
2017-12-11T02:38:58.883Z,30.58
2017-12-11T02:39:32.562Z,29.52
2017-12-11T02:40:05.574Z,29.40
2017-12-11T02:40:40.003Z,29.87
2017-12-11T02:41:13.334Z,30.73
2017-12-11T02:41:46.371Z,29.50
2017-12-11T02:42:19.381Z,30.00
2017-12-11T02:42:52.383Z,30.83
2017-12-11T02:43:26.172Z,29.67
2017-12-11T02:43:59.987Z,28.42
2017-12-11T02:44:32.990Z,29.60
2017-12-11T02:45:06.380Z,30.25
2017-12-11T02:45:39.408Z,29.55
2017-12-11T02:46:12.431Z,29.42
2017-12-11T02:46:45.442Z,28.58
2017-12-11T02:47:19.225Z,29.92
2017-12-11T02:47:52.226Z,28.77
2017-12-11T02:48:26.410Z,30.30
2017-12-11T02:48:59.422Z,29.92
2017-12-11T02:49:32.434Z,29.20
2017-12-11T02:50:06.097Z,29.73
2017-12-11T02:50:39.098Z,30.98
2017-12-11T02:51:12.439Z,30.35
2017-12-11T02:51:45.460Z,29.12
2017-12-11T02:52:18.463Z,29.55
2017-12-11T02:52:52.243Z,29.52
2017-12-11T02:53:26.014Z,30.77
2017-12-11T02:53:59.014Z,28.73
2017-12-11T02:54:33.488Z,30.25
2017-12-11T02:55:07.159Z,28.62
2017-12-11T02:55:40.849Z,28.25
2017-12-11T02:56:14.520Z,28.77
2017-12-11T02:56:47.550Z,27.83
2017-12-11T02:57:21.220Z,28.90
2017-12-11T02:57:54.893Z,28.90
2017-12-11T02:58:28.580Z,28.98
2017-12-11T02:59:02.263Z,28.23
2017-12-11T02:59:35.951Z,30.20
2017-12-11T03:00:09.616Z,27.62
2017-12-11T03:00:42.952Z,28.45
2017-12-11T03:01:16.274Z,28.85
2017-12-11T03:01:50.701Z,28.10
2017-12-11T03:02:24.370Z,27.55
2017-12-11T03:02:57.712Z,28.33
2017-12-11T03:03:31.390Z,27.17
2017-12-11T03:04:05.058Z,28.15
2017-12-11T03:04:38.754Z,26.25
2017-12-11T03:05:12.102Z,28.10
2017-12-11T03:05:46.540Z,26.80
2017-12-11T03:06:19.889Z,27.98
2017-12-11T03:06:54.344Z,26.95
2017-12-11T03:07:28.028Z,27.40
2017-12-11T03:08:01.701Z,25.90
2017-12-11T03:08:35.371Z,27.77
2017-12-11T03:09:09.466Z,27.98
2017-12-11T03:09:43.919Z,25.83
2017-12-11T03:10:17.588Z,27.62
2017-12-11T03:10:51.249Z,27.73
2017-12-11T03:11:25.670Z,26.10
2017-12-11T03:11:59.337Z,25.52
2017-12-11T03:12:33.438Z,27.45
2017-12-11T03:13:07.864Z,27.67
2017-12-11T03:13:41.534Z,27.83
2017-12-11T03:14:15.631Z,26.45
2017-12-11T03:14:49.322Z,26.08
2017-12-11T03:15:22.978Z,26.30
2017-12-11T03:15:56.641Z,26.90
2017-12-11T03:16:29.976Z,26.48
2017-12-11T03:17:03.639Z,26.00
2017-12-11T03:17:37.327Z,26.27
2017-12-11T03:18:10.989Z,27.42
2017-12-11T03:18:44.667Z,26.15
2017-12-11T03:19:18.333Z,24.85
2017-12-11T03:19:52.442Z,25.30
2017-12-11T03:20:26.883Z,25.62
2017-12-11T03:21:00.566Z,27.05
2017-12-11T03:21:33.903Z,25.65
2017-12-11T03:22:07.238Z,25.37
2017-12-11T03:22:40.914Z,24.15
2017-12-11T03:23:14.580Z,24.65
2017-12-11T03:23:49.011Z,25.05
2017-12-11T03:24:22.682Z,25.37
2017-12-11T03:24:56.386Z,24.85
2017-12-11T03:25:30.044Z,24.33
2017-12-11T03:26:03.700Z,23.83
2017-12-11T03:26:37.371Z,24.45
2017-12-11T03:27:11.044Z,25.10
2017-12-11T03:27:44.720Z,24.20
2017-12-11T03:28:18.391Z,25.45
2017-12-11T03:28:52.819Z,26.37
2017-12-11T03:29:26.497Z,25.20
2017-12-11T03:30:00.972Z,25.92
2017-12-11T03:30:34.747Z,24.77
2017-12-11T03:31:07.748Z,25.45
2017-12-11T03:31:41.402Z,24.70
2017-12-11T03:32:14.414Z,24.85
2017-12-11T03:32:47.750Z,24.90
2017-12-11T03:33:20.759Z,25.15
2017-12-11T03:33:54.129Z,24.77
2017-12-11T03:34:27.457Z,25.12
2017-12-11T03:35:01.597Z,25.62
2017-12-11T03:35:35.277Z,24.30
2017-12-11T03:36:08.939Z,23.83
2017-12-11T03:36:42.627Z,24.52
2017-12-11T03:37:16.321Z,23.70
2017-12-11T03:37:49.986Z,24.45
2017-12-11T03:38:23.646Z,27.05
2017-12-11T03:38:57.323Z,25.12
2017-12-11T03:39:31.000Z,23.73
2017-12-11T03:40:04.371Z,24.80
2017-12-11T03:40:38.045Z,24.98
2017-12-11T03:41:11.821Z,23.87
2017-12-11T03:41:46.273Z,23.55
2017-12-11T03:42:19.943Z,24.60
2017-12-11T03:42:53.603Z,25.85
2017-12-11T03:43:26.938Z,25.80
2017-12-11T03:44:00.591Z,25.75
2017-12-11T03:44:35.018Z,24.40
2017-12-11T03:45:08.697Z,25.70
2017-12-11T03:45:42.364Z,24.17
2017-12-11T03:46:16.795Z,25.95
2017-12-11T03:46:50.471Z,24.12
2017-12-11T03:47:24.906Z,24.73
2017-12-11T03:47:58.575Z,24.60
2017-12-11T03:48:32.248Z,24.35
2017-12-11T03:49:06.683Z,25.45
2017-12-11T03:49:40.366Z,25.12
2017-12-11T03:50:14.055Z,24.83
2017-12-11T03:50:47.721Z,25.62
2017-12-11T03:51:22.154Z,24.73
2017-12-11T03:51:55.811Z,23.98
2017-12-11T03:52:29.471Z,24.67
2017-12-11T03:53:03.149Z,23.83
2017-12-11T03:53:36.826Z,25.08
2017-12-11T03:54:10.478Z,24.55
2017-12-11T03:54:44.635Z,24.87
2017-12-11T03:55:18.325Z,24.80
2017-12-11T03:55:52.011Z,24.70
2017-12-11T03:56:25.687Z,26.50
2017-12-11T03:56:59.338Z,24.42
2017-12-11T03:57:33.774Z,24.65
2017-12-11T03:58:07.446Z,24.98
2017-12-11T03:58:41.878Z,24.73
2017-12-11T03:59:15.543Z,24.20
2017-12-11T03:59:49.966Z,25.70
2017-12-11T04:00:23.330Z,24.73
2017-12-11T04:00:57.755Z,24.85
2017-12-11T04:01:31.415Z,25.52
2017-12-11T04:02:05.839Z,23.83
2017-12-11T04:02:39.511Z,23.75
2017-12-11T04:03:13.167Z,24.70
2017-12-11T04:03:46.850Z,23.85
2017-12-11T04:04:20.525Z,23.77
2017-12-11T04:04:54.188Z,24.48
2017-12-11T04:05:27.698Z,23.87
2017-12-11T04:06:01.373Z,23.92
2017-12-11T04:06:35.085Z,25.73
2017-12-11T04:07:08.754Z,24.45
2017-12-11T04:07:42.422Z,24.25
2017-12-11T04:08:16.847Z,25.17
2017-12-11T04:08:50.504Z,24.20
2017-12-11T04:09:24.157Z,25.12
2017-12-11T04:09:57.835Z,24.33
2017-12-11T04:10:31.352Z,24.10
2017-12-11T04:11:05.027Z,23.75
2017-12-11T04:11:38.706Z,24.45
2017-12-11T04:12:12.365Z,24.15
2017-12-11T04:12:46.639Z,26.02
2017-12-11T04:13:21.073Z,23.60
2017-12-11T04:13:55.503Z,25.33
2017-12-11T04:14:29.157Z,25.92
2017-12-11T04:15:03.592Z,23.20
2017-12-11T04:15:37.271Z,25.17
2017-12-11T04:16:10.946Z,25.27
2017-12-11T04:16:45.434Z,23.77
2017-12-11T04:17:19.226Z,25.10
2017-12-11T04:17:52.878Z,24.33
2017-12-11T04:18:26.562Z,24.23
2017-12-11T04:19:00.230Z,23.25
2017-12-11T04:19:33.886Z,23.90
2017-12-11T04:20:07.556Z,23.92
2017-12-11T04:20:41.375Z,24.08
2017-12-11T04:21:15.830Z,23.98
2017-12-11T04:21:49.508Z,23.58
2017-12-11T04:22:23.176Z,24.00
2017-12-11T04:22:58.043Z,23.35
2017-12-11T04:23:31.716Z,24.65
2017-12-11T04:24:05.403Z,24.05
2017-12-11T04:24:39.138Z,23.50
2017-12-11T04:25:12.983Z,25.65
2017-12-11T04:25:46.680Z,25.27
2017-12-11T04:26:20.359Z,24.83
2017-12-11T04:26:54.036Z,25.15
2017-12-11T04:27:27.715Z,25.62
2017-12-11T04:28:02.195Z,24.75
2017-12-11T04:28:35.881Z,25.50
2017-12-11T04:29:09.543Z,24.63
2017-12-11T04:29:43.220Z,25.20
2017-12-11T04:30:16.882Z,26.02
2017-12-11T04:30:51.331Z,25.30
2017-12-11T04:31:25.030Z,24.08
2017-12-11T04:31:58.699Z,23.35
2017-12-11T04:32:32.391Z,24.08
2017-12-11T04:33:06.062Z,25.80
2017-12-11T04:33:39.775Z,24.48
2017-12-11T04:34:13.451Z,24.33
2017-12-11T04:34:47.126Z,23.40
2017-12-11T04:35:20.799Z,23.33
2017-12-11T04:35:54.585Z,25.80
2017-12-11T04:36:28.254Z,25.27
2017-12-11T04:37:01.924Z,24.98
2017-12-11T04:37:35.591Z,26.20
2017-12-11T04:38:09.262Z,26.10
2017-12-11T04:38:42.951Z,23.60
2017-12-11T04:39:17.384Z,24.87
2017-12-11T04:39:51.116Z,23.50
2017-12-11T04:40:24.822Z,24.92
2017-12-11T04:40:58.681Z,24.75
2017-12-11T04:41:32.359Z,24.52
2017-12-11T04:42:06.371Z,22.62
2017-12-11T04:42:40.047Z,23.85
2017-12-11T04:43:13.932Z,25.05
2017-12-11T04:43:47.603Z,24.27
2017-12-11T04:44:21.272Z,26.23
2017-12-11T04:44:55.715Z,25.20
2017-12-11T04:45:29.389Z,25.42
2017-12-11T04:46:03.087Z,23.23
2017-12-11T04:46:36.768Z,25.58
2017-12-11T04:47:10.441Z,24.77
2017-12-11T04:47:44.878Z,25.15
2017-12-11T04:48:18.541Z,25.60
2017-12-11T04:48:52.974Z,25.02
2017-12-11T04:49:26.677Z,25.55
2017-12-11T04:50:00.361Z,24.60
2017-12-11T04:50:34.042Z,26.15
2017-12-11T04:51:07.741Z,24.90
2017-12-11T04:51:41.592Z,23.58
2017-12-11T04:52:16.033Z,23.83
2017-12-11T04:52:49.700Z,24.77
2017-12-11T04:53:24.397Z,23.73
2017-12-11T04:53:58.057Z,24.00
2017-12-11T04:54:31.723Z,25.10
2017-12-11T04:55:05.399Z,25.35
2017-12-11T04:55:39.090Z,24.55
2017-12-11T04:56:12.794Z,25.65
2017-12-11T04:56:46.466Z,27.80
2017-12-11T04:57:20.159Z,25.45
2017-12-11T04:57:53.830Z,24.10
2017-12-11T04:58:27.502Z,24.77
2017-12-11T04:59:01.167Z,25.27
2017-12-11T04:59:34.831Z,24.20
2017-12-11T05:00:08.508Z,26.77
2017-12-11T05:00:41.843Z,25.25
2017-12-11T05:01:15.547Z,24.23
2017-12-11T05:01:49.991Z,24.85
2017-12-11T05:02:23.675Z,24.08
2017-12-11T05:02:57.360Z,23.10
2017-12-11T05:03:31.026Z,24.83
2017-12-11T05:04:05.472Z,25.35
2017-12-11T05:04:39.151Z,23.67
2017-12-11T05:05:12.494Z,23.83
2017-12-11T05:05:46.936Z,24.25
2017-12-11T05:06:20.303Z,23.80
2017-12-11T05:06:53.650Z,24.87
2017-12-11T05:07:27.323Z,25.02
2017-12-11T05:08:00.987Z,25.37
2017-12-11T05:08:34.665Z,24.23
2017-12-11T05:09:08.350Z,24.10
2017-12-11T05:09:42.034Z,22.45
2017-12-11T05:10:15.371Z,23.75
2017-12-11T05:10:48.710Z,24.52
2017-12-11T05:11:22.394Z,24.70
2017-12-11T05:11:56.062Z,22.58
2017-12-11T05:12:30.513Z,24.02
2017-12-11T05:13:04.184Z,24.15
2017-12-11T05:13:37.833Z,24.55
2017-12-11T05:14:11.536Z,24.92
2017-12-11T05:14:45.197Z,24.33
2017-12-11T05:15:18.858Z,23.33
2017-12-11T05:15:52.546Z,24.45
2017-12-11T05:16:27.162Z,25.02
2017-12-11T05:17:00.821Z,26.83
2017-12-11T05:17:34.502Z,24.52
2017-12-11T05:18:08.927Z,24.92
2017-12-11T05:18:42.594Z,25.02
2017-12-11T05:19:17.051Z,24.02
2017-12-11T05:19:50.719Z,23.20
2017-12-11T05:20:24.379Z,25.60
2017-12-11T05:20:58.482Z,24.42
2017-12-11T05:21:32.618Z,24.35
2017-12-11T05:22:06.286Z,25.17
2017-12-11T05:22:39.946Z,25.52
2017-12-11T05:23:14.374Z,23.33
2017-12-11T05:23:48.808Z,24.33
2017-12-11T05:24:22.159Z,24.12
2017-12-11T05:24:56.587Z,22.98
2017-12-11T05:25:29.920Z,23.98
2017-12-11T05:26:03.583Z,22.25
2017-12-11T05:26:37.272Z,23.10
2017-12-11T05:27:10.935Z,23.62
2017-12-11T05:27:44.602Z,23.50
2017-12-11T05:28:19.027Z,23.62
2017-12-11T05:28:52.695Z,23.83
2017-12-11T05:29:27.136Z,23.10
2017-12-11T05:30:00.805Z,23.30
2017-12-11T05:30:34.913Z,23.27
2017-12-11T05:31:09.987Z,23.12
2017-12-11T05:31:43.681Z,23.15
2017-12-11T05:32:17.346Z,23.90
2017-12-11T05:32:51.025Z,23.55
2017-12-11T05:33:24.691Z,23.20
2017-12-11T05:33:58.363Z,24.10
2017-12-11T05:34:32.802Z,24.33
2017-12-11T05:35:06.471Z,23.62
2017-12-11T05:35:39.502Z,23.20
2017-12-11T05:36:12.503Z,23.25
2017-12-11T05:36:46.994Z,22.75
2017-12-11T05:37:20.679Z,23.42
2017-12-11T05:37:54.334Z,24.52
2017-12-11T05:38:27.994Z,23.62
2017-12-11T05:39:02.426Z,22.00
2017-12-11T05:39:36.092Z,22.42
2017-12-11T05:40:10.523Z,24.08
2017-12-11T05:40:44.186Z,23.65
2017-12-11T05:41:18.614Z,23.42
2017-12-11T05:41:52.302Z,22.58
2017-12-11T05:42:25.974Z,25.40
2017-12-11T05:43:00.411Z,23.40
2017-12-11T05:43:34.080Z,23.90
2017-12-11T05:44:07.759Z,23.50
2017-12-11T05:44:42.958Z,23.35
2017-12-11T05:45:16.627Z,24.35
2017-12-11T05:45:50.294Z,23.38
2017-12-11T05:46:23.964Z,23.50
2017-12-11T05:46:57.654Z,23.58
2017-12-11T05:47:31.331Z,23.52
2017-12-11T05:48:05.757Z,25.75
2017-12-11T05:48:39.419Z,22.10
2017-12-11T05:49:13.847Z,23.52
2017-12-11T05:49:47.531Z,23.92
2017-12-11T05:50:21.959Z,23.62
2017-12-11T05:50:55.636Z,22.65
2017-12-11T05:51:29.314Z,23.27
2017-12-11T05:52:03.017Z,24.50
2017-12-11T05:52:36.683Z,24.23
2017-12-11T05:53:11.127Z,22.45
2017-12-11T05:53:44.799Z,24.75
2017-12-11T05:54:18.472Z,23.75
2017-12-11T05:54:52.906Z,23.52
2017-12-11T05:55:26.565Z,23.42
2017-12-11T05:56:01.006Z,24.55
2017-12-11T05:56:34.669Z,25.08
2017-12-11T05:57:09.132Z,25.42
2017-12-11T05:57:42.799Z,24.45
2017-12-11T05:58:16.476Z,23.60
2017-12-11T05:58:50.138Z,24.42
2017-12-11T05:59:24.574Z,24.10
2017-12-11T05:59:58.231Z,23.73
2017-12-11T06:00:32.667Z,24.85
2017-12-11T06:01:06.323Z,25.00
2017-12-11T06:01:39.987Z,26.00
2017-12-11T06:02:13.661Z,25.80
2017-12-11T06:02:47.331Z,24.37
2017-12-11T06:03:21.002Z,26.23
2017-12-11T06:03:54.687Z,25.17
2017-12-11T06:04:29.117Z,24.73
2017-12-11T06:05:02.787Z,23.92
2017-12-11T06:05:36.469Z,24.77
2017-12-11T06:06:10.923Z,24.30
2017-12-11T06:06:44.602Z,24.77
2017-12-11T06:07:18.286Z,24.20
2017-12-11T06:07:51.939Z,25.30
2017-12-11T06:08:26.377Z,22.73
2017-12-11T06:09:00.075Z,25.33
2017-12-11T06:09:33.751Z,22.73
2017-12-11T06:10:07.431Z,25.12
2017-12-11T06:10:41.099Z,23.90
2017-12-11T06:11:14.771Z,23.62
2017-12-11T06:11:48.443Z,23.50
2017-12-11T06:12:22.132Z,24.52
2017-12-11T06:12:55.812Z,22.77
2017-12-11T06:13:29.474Z,23.85
2017-12-11T06:14:03.159Z,24.05
2017-12-11T06:14:36.837Z,24.23
2017-12-11T06:15:11.346Z,24.70
2017-12-11T06:15:45.770Z,24.70
2017-12-11T06:16:19.432Z,25.37
2017-12-11T06:16:53.094Z,24.58
2017-12-11T06:17:26.770Z,24.23
2017-12-11T06:18:00.451Z,24.67
2017-12-11T06:18:34.127Z,25.23
2017-12-11T06:19:07.812Z,24.90
2017-12-11T06:19:41.486Z,23.67
2017-12-11T06:20:15.616Z,25.17
2017-12-11T06:20:49.329Z,24.35
2017-12-11T06:21:22.995Z,24.15
2017-12-11T06:21:56.660Z,24.50
2017-12-11T06:22:30.360Z,24.10
2017-12-11T06:23:04.033Z,24.02
2017-12-11T06:23:38.462Z,23.55
2017-12-11T06:24:12.139Z,24.67
2017-12-11T06:24:46.574Z,26.50
2017-12-11T06:25:20.244Z,24.75
2017-12-11T06:25:53.919Z,23.95
2017-12-11T06:26:27.577Z,23.30
2017-12-11T06:27:01.250Z,24.80
2017-12-11T06:27:34.943Z,24.67
2017-12-11T06:28:08.611Z,24.77
2017-12-11T06:28:42.272Z,24.73
2017-12-11T06:29:15.967Z,25.33
2017-12-11T06:29:49.633Z,25.67
2017-12-11T06:30:23.292Z,25.50
2017-12-11T06:30:56.974Z,24.80
2017-12-11T06:31:30.644Z,24.45
2017-12-11T06:32:04.317Z,23.45
2017-12-11T06:32:38.002Z,24.77
2017-12-11T06:33:11.667Z,24.37
2017-12-11T06:33:46.108Z,23.08
2017-12-11T06:34:19.775Z,23.42
2017-12-11T06:34:54.207Z,24.05
2017-12-11T06:35:27.875Z,24.30
2017-12-11T06:36:01.587Z,22.52
2017-12-11T06:36:36.178Z,23.90
2017-12-11T06:37:09.841Z,23.45
2017-12-11T06:37:43.540Z,25.12
2017-12-11T06:38:17.205Z,25.95
2017-12-11T06:38:50.865Z,26.42
2017-12-11T06:39:24.630Z,25.77
2017-12-11T06:39:59.061Z,24.23
2017-12-11T06:40:32.735Z,25.98
2017-12-11T06:41:06.385Z,25.62
2017-12-11T06:41:40.058Z,25.30
2017-12-11T06:42:13.725Z,25.37
2017-12-11T06:42:47.422Z,24.87
2017-12-11T06:43:21.074Z,24.23
2017-12-11T06:43:54.743Z,23.45
2017-12-11T06:44:29.199Z,24.08
2017-12-11T06:45:02.864Z,23.73
2017-12-11T06:45:36.529Z,21.10
2017-12-11T06:46:10.954Z,22.70
2017-12-11T06:46:44.619Z,22.40
2017-12-11T06:47:18.285Z,21.08
2017-12-11T06:47:51.991Z,21.60
2017-12-11T06:48:25.650Z,21.75
2017-12-11T06:48:59.314Z,20.77
2017-12-11T06:49:32.987Z,21.70
2017-12-11T06:50:07.412Z,20.42
2017-12-11T06:50:41.082Z,21.35
2017-12-11T06:51:15.506Z,21.27
2017-12-11T06:51:49.166Z,20.40
2017-12-11T06:52:23.881Z,21.10
2017-12-11T06:52:58.343Z,20.50
2017-12-11T06:53:32.019Z,21.85
2017-12-11T06:54:05.679Z,19.67
2017-12-11T06:54:40.114Z,19.65
2017-12-11T06:55:13.785Z,18.95
2017-12-11T06:55:47.470Z,17.12
2017-12-11T06:56:21.940Z,17.10
2017-12-11T06:56:55.602Z,18.60
2017-12-11T06:57:29.259Z,17.00
2017-12-11T06:58:03.705Z,16.77
2017-12-11T06:58:37.366Z,16.05
2017-12-11T06:59:11.030Z,15.50
2017-12-11T06:59:45.452Z,17.12
2017-12-11T07:00:19.110Z,16.10
2017-12-11T07:00:52.771Z,16.40
2017-12-11T07:01:26.445Z,15.48
2017-12-11T07:02:00.103Z,16.20
2017-12-11T07:02:34.537Z,16.37
2017-12-11T07:03:08.233Z,17.00
2017-12-11T07:03:41.891Z,17.40
2017-12-11T07:04:16.344Z,16.90
2017-12-11T07:04:50.019Z,17.30
2017-12-11T07:05:23.683Z,16.45
2017-12-11T07:05:58.147Z,16.08
2017-12-11T07:06:31.823Z,17.23
2017-12-11T07:07:05.491Z,17.67
2017-12-11T07:07:39.183Z,16.15
2017-12-11T07:08:12.871Z,16.70
2017-12-11T07:08:46.534Z,17.92
2017-12-11T07:09:20.961Z,18.42
2017-12-11T07:09:54.632Z,16.98
2017-12-11T07:10:29.077Z,18.08
2017-12-11T07:11:02.742Z,17.02
2017-12-11T07:11:36.405Z,17.52
2017-12-11T07:12:10.826Z,15.88
2017-12-11T07:12:45.262Z,16.08
2017-12-11T07:13:18.950Z,15.60
2017-12-11T07:13:52.621Z,14.55
2017-12-11T07:14:26.279Z,15.07
2017-12-11T07:14:59.947Z,15.20